sensor_id;sensor_type;location;lat;lon;timestamp;P1;durP1;ratioP1;P2;durP2;ratioP2
41057;SDS011;66768;48.884;2.258;2023-09-12T00:00:22;0.50;;;0.50;;
41057;SDS011;66768;48.884;2.258;2023-09-12T00:02:49;0.50;;;0.50;;
41057;SDS011;66768;48.884;2.258;2023-09-12T00:05:17;0.50;;;0.50;;
41057;SDS011;66768;48.884;2.258;2023-09-12T00:07:44;0.50;;;0.50;;
41057;SDS011;66768;48.884;2.258;2023-09-12T00:10:11;0.50;;;0.50;;
41057;SDS011;66768;48.884;2.258;2023-09-12T00:12:38;0.50;;;0.50;;
41057;SDS011;66768;48.884;2.258;2023-09-12T00:15:05;0.60;;;0.60;;
41057;SDS011;66768;48.884;2.258;2023-09-12T00:17:32;0.50;;;0.50;;
41057;SDS011;66768;48.884;2.258;2023-09-12T00:19:59;0.50;;;0.50;;
41057;SDS011;66768;48.884;2.258;2023-09-12T00:22:27;0.50;;;0.50;;
41057;SDS011;66768;48.884;2.258;2023-09-12T00:24:54;0.50;;;0.50;;
41057;SDS011;66768;48.884;2.258;2023-09-12T00:27:21;0.50;;;0.50;;
41057;SDS011;66768;48.884;2.258;2023-09-12T00:29:48;0.50;;;0.50;;
41057;SDS011;66768;48.884;2.258;2023-09-12T00:32:14;0.55;;;0.55;;
41057;SDS011;66768;48.884;2.258;2023-09-12T00:34:41;0.50;;;0.50;;
41057;SDS011;66768;48.884;2.258;2023-09-12T00:37:08;0.50;;;0.50;;
41057;SDS011;66768;48.884;2.258;2023-09-12T00:39:38;0.52;;;0.52;;
41057;SDS011;66768;48.884;2.258;2023-09-12T00:42:05;0.50;;;0.50;;
41057;SDS011;66768;48.884;2.258;2023-09-12T00:44:32;0.63;;;0.63;;
41057;SDS011;66768;48.884;2.258;2023-09-12T00:46:59;0.60;;;0.60;;
41057;SDS011;66768;48.884;2.258;2023-09-12T00:49:27;0.50;;;0.50;;
41057;SDS011;66768;48.884;2.258;2023-09-12T00:51:55;0.50;;;0.50;;
41057;SDS011;66768;48.884;2.258;2023-09-12T00:54:23;0.50;;;0.50;;
41057;SDS011;66768;48.884;2.258;2023-09-12T00:56:52;0.60;;;0.60;;
41057;SDS011;66768;48.884;2.258;2023-09-12T00:59:19;0.50;;;0.50;;
41057;SDS011;66768;48.884;2.258;2023-09-12T01:01:47;0.50;;;0.50;;
41057;SDS011;66768;48.884;2.258;2023-09-12T01:04:17;0.50;;;0.50;;
41057;SDS011;66768;48.884;2.258;2023-09-12T01:06:44;0.50;;;0.50;;
41057;SDS011;66768;48.884;2.258;2023-09-12T01:09:12;0.50;;;0.50;;
41057;SDS011;66768;48.884;2.258;2023-09-12T01:11:39;0.50;;;0.50;;
41057;SDS011;66768;48.884;2.258;2023-09-12T01:14:08;0.50;;;0.50;;
41057;SDS011;66768;48.884;2.258;2023-09-12T01:16:35;0.47;;;0.47;;
41057;SDS011;66768;48.884;2.258;2023-09-12T01:19:02;0.40;;;0.40;;
41057;SDS011;66768;48.884;2.258;2023-09-12T01:21:38;0.40;;;0.40;;
41057;SDS011;66768;48.884;2.258;2023-09-12T01:24:25;0.50;;;0.50;;
41057;SDS011;66768;48.884;2.258;2023-09-12T01:27:20;0.60;;;0.60;;
41057;SDS011;66768;48.884;2.258;2023-09-12T01:29:49;0.40;;;0.40;;
41057;SDS011;66768;48.884;2.258;2023-09-12T01:32:20;0.50;;;0.50;;
41057;SDS011;66768;48.884;2.258;2023-09-12T01:34:47;0.50;;;0.50;;
41057;SDS011;66768;48.884;2.258;2023-09-12T01:37:14;0.50;;;0.50;;
41057;SDS011;66768;48.884;2.258;2023-09-12T01:39:41;0.60;;;0.60;;
41057;SDS011;66768;48.884;2.258;2023-09-12T01:42:08;0.50;;;0.50;;
41057;SDS011;66768;48.884;2.258;2023-09-12T01:44:39;0.63;;;0.63;;
41057;SDS011;66768;48.884;2.258;2023-09-12T01:47:09;0.63;;;0.63;;
41057;SDS011;66768;48.884;2.258;2023-09-12T01:49:38;0.60;;;0.60;;
41057;SDS011;66768;48.884;2.258;2023-09-12T01:52:08;0.80;;;0.80;;
41057;SDS011;66768;48.884;2.258;2023-09-12T01:54:36;0.80;;;0.80;;
41057;SDS011;66768;48.884;2.258;2023-09-12T01:57:04;0.80;;;0.80;;
41057;SDS011;66768;48.884;2.258;2023-09-12T01:59:31;0.80;;;0.80;;
41057;SDS011;66768;48.884;2.258;2023-09-12T02:02:00;0.80;;;0.80;;
41057;SDS011;66768;48.884;2.258;2023-09-12T02:04:27;0.80;;;0.80;;
41057;SDS011;66768;48.884;2.258;2023-09-12T02:06:54;0.90;;;0.90;;
41057;SDS011;66768;48.884;2.258;2023-09-12T02:09:22;0.90;;;0.90;;
41057;SDS011;66768;48.884;2.258;2023-09-12T02:11:49;0.90;;;0.90;;
41057;SDS011;66768;48.884;2.258;2023-09-12T02:14:17;1.05;;;1.05;;
41057;SDS011;66768;48.884;2.258;2023-09-12T02:16:44;1.10;;;1.10;;
41057;SDS011;66768;48.884;2.258;2023-09-12T02:19:12;1.10;;;1.10;;
41057;SDS011;66768;48.884;2.258;2023-09-12T02:21:39;1.20;;;1.20;;
41057;SDS011;66768;48.884;2.258;2023-09-12T02:24:07;1.20;;;1.20;;
41057;SDS011;66768;48.884;2.258;2023-09-12T02:26:34;1.20;;;1.20;;
41057;SDS011;66768;48.884;2.258;2023-09-12T02:29:02;1.30;;;1.30;;
41057;SDS011;66768;48.884;2.258;2023-09-12T02:31:30;1.30;;;1.30;;
41057;SDS011;66768;48.884;2.258;2023-09-12T02:33:57;1.30;;;1.30;;
41057;SDS011;66768;48.884;2.258;2023-09-12T02:36:25;1.13;;;1.13;;
41057;SDS011;66768;48.884;2.258;2023-09-12T02:38:54;1.20;;;1.20;;
41057;SDS011;66768;48.884;2.258;2023-09-12T02:41:20;1.10;;;1.10;;
41057;SDS011;66768;48.884;2.258;2023-09-12T02:43:47;1.10;;;1.10;;
41057;SDS011;66768;48.884;2.258;2023-09-12T02:46:14;1.10;;;1.10;;
41057;SDS011;66768;48.884;2.258;2023-09-12T02:48:41;1.15;;;1.15;;
41057;SDS011;66768;48.884;2.258;2023-09-12T02:51:08;1.25;;;1.25;;
41057;SDS011;66768;48.884;2.258;2023-09-12T02:53:36;1.50;;;1.50;;
41057;SDS011;66768;48.884;2.258;2023-09-12T02:56:03;1.35;;;1.35;;
41057;SDS011;66768;48.884;2.258;2023-09-12T02:58:30;1.42;;;1.42;;
41057;SDS011;66768;48.884;2.258;2023-09-12T03:00:56;1.60;;;1.60;;
41057;SDS011;66768;48.884;2.258;2023-09-12T03:03:23;1.55;;;1.55;;
41057;SDS011;66768;48.884;2.258;2023-09-12T03:05:56;1.77;;;1.77;;
41057;SDS011;66768;48.884;2.258;2023-09-12T03:08:24;1.50;;;1.50;;
41057;SDS011;66768;48.884;2.258;2023-09-12T03:10:54;1.40;;;1.40;;
41057;SDS011;66768;48.884;2.258;2023-09-12T03:13:22;1.38;;;1.38;;
41057;SDS011;66768;48.884;2.258;2023-09-12T03:15:49;1.30;;;1.30;;
41057;SDS011;66768;48.884;2.258;2023-09-12T03:18:16;1.30;;;1.30;;
41057;SDS011;66768;48.884;2.258;2023-09-12T03:20:43;1.20;;;1.20;;
41057;SDS011;66768;48.884;2.258;2023-09-12T03:23:10;0.93;;;0.93;;
41057;SDS011;66768;48.884;2.258;2023-09-12T03:25:37;1.00;;;1.00;;
41057;SDS011;66768;48.884;2.258;2023-09-12T03:28:06;0.90;;;0.90;;
41057;SDS011;66768;48.884;2.258;2023-09-12T03:30:34;0.98;;;0.98;;
41057;SDS011;66768;48.884;2.258;2023-09-12T03:33:02;0.90;;;0.90;;
41057;SDS011;66768;48.884;2.258;2023-09-12T03:35:30;1.00;;;1.00;;
41057;SDS011;66768;48.884;2.258;2023-09-12T03:37:58;0.95;;;0.95;;
41057;SDS011;66768;48.884;2.258;2023-09-12T03:40:27;1.17;;;1.17;;
41057;SDS011;66768;48.884;2.258;2023-09-12T03:42:54;1.10;;;1.10;;
41057;SDS011;66768;48.884;2.258;2023-09-12T03:45:22;1.20;;;1.20;;
41057;SDS011;66768;48.884;2.258;2023-09-12T03:47:49;1.05;;;1.05;;
41057;SDS011;66768;48.884;2.258;2023-09-12T03:50:17;1.10;;;1.10;;
41057;SDS011;66768;48.884;2.258;2023-09-12T03:52:44;1.15;;;1.15;;
41057;SDS011;66768;48.884;2.258;2023-09-12T03:55:10;1.15;;;1.15;;
41057;SDS011;66768;48.884;2.258;2023-09-12T03:57:37;1.10;;;1.10;;
41057;SDS011;66768;48.884;2.258;2023-09-12T04:00:04;1.30;;;1.30;;
41057;SDS011;66768;48.884;2.258;2023-09-12T04:02:34;0.95;;;0.95;;
41057;SDS011;66768;48.884;2.258;2023-09-12T04:05:01;0.93;;;0.93;;
41057;SDS011;66768;48.884;2.258;2023-09-12T04:07:28;0.90;;;0.90;;
41057;SDS011;66768;48.884;2.258;2023-09-12T04:09:55;0.88;;;0.88;;
41057;SDS011;66768;48.884;2.258;2023-09-12T04:12:21;0.70;;;0.70;;
41057;SDS011;66768;48.884;2.258;2023-09-12T04:14:49;0.70;;;0.70;;
41057;SDS011;66768;48.884;2.258;2023-09-12T04:17:17;0.80;;;0.80;;
41057;SDS011;66768;48.884;2.258;2023-09-12T04:19:45;0.60;;;0.60;;
41057;SDS011;66768;48.884;2.258;2023-09-12T04:22:12;0.65;;;0.65;;
41057;SDS011;66768;48.884;2.258;2023-09-12T04:24:38;0.70;;;0.70;;
41057;SDS011;66768;48.884;2.258;2023-09-12T04:27:06;0.60;;;0.60;;
41057;SDS011;66768;48.884;2.258;2023-09-12T04:29:33;0.60;;;0.60;;
41057;SDS011;66768;48.884;2.258;2023-09-12T04:32:01;0.60;;;0.60;;
41057;SDS011;66768;48.884;2.258;2023-09-12T04:34:28;0.43;;;0.43;;
41057;SDS011;66768;48.884;2.258;2023-09-12T04:36:56;0.50;;;0.50;;
41057;SDS011;66768;48.884;2.258;2023-09-12T04:39:23;0.50;;;0.50;;
41057;SDS011;66768;48.884;2.258;2023-09-12T04:41:50;0.50;;;0.50;;
41057;SDS011;66768;48.884;2.258;2023-09-12T04:44:17;0.40;;;0.40;;
41057;SDS011;66768;48.884;2.258;2023-09-12T04:46:44;0.40;;;0.40;;
41057;SDS011;66768;48.884;2.258;2023-09-12T04:49:11;0.50;;;0.50;;
41057;SDS011;66768;48.884;2.258;2023-09-12T04:51:38;0.50;;;0.50;;
41057;SDS011;66768;48.884;2.258;2023-09-12T04:54:06;0.50;;;0.50;;
41057;SDS011;66768;48.884;2.258;2023-09-12T04:56:33;0.40;;;0.40;;
41057;SDS011;66768;48.884;2.258;2023-09-12T04:59:00;0.40;;;0.40;;
41057;SDS011;66768;48.884;2.258;2023-09-12T05:01:26;0.40;;;0.40;;
41057;SDS011;66768;48.884;2.258;2023-09-12T05:03:53;0.50;;;0.50;;
41057;SDS011;66768;48.884;2.258;2023-09-12T05:06:22;0.47;;;0.47;;
41057;SDS011;66768;48.884;2.258;2023-09-12T05:08:49;0.43;;;0.43;;
41057;SDS011;66768;48.884;2.258;2023-09-12T05:11:16;0.50;;;0.50;;
41057;SDS011;66768;48.884;2.258;2023-09-12T05:13:43;0.43;;;0.43;;
41057;SDS011;66768;48.884;2.258;2023-09-12T05:16:10;0.40;;;0.40;;
41057;SDS011;66768;48.884;2.258;2023-09-12T05:18:37;0.40;;;0.40;;
41057;SDS011;66768;48.884;2.258;2023-09-12T05:21:04;0.40;;;0.40;;
41057;SDS011;66768;48.884;2.258;2023-09-12T05:23:31;0.40;;;0.40;;
41057;SDS011;66768;48.884;2.258;2023-09-12T05:25:57;0.40;;;0.40;;
41057;SDS011;66768;48.884;2.258;2023-09-12T05:28:26;0.40;;;0.40;;
41057;SDS011;66768;48.884;2.258;2023-09-12T05:30:53;0.40;;;0.40;;
41057;SDS011;66768;48.884;2.258;2023-09-12T05:33:20;0.60;;;0.60;;
41057;SDS011;66768;48.884;2.258;2023-09-12T05:35:47;0.50;;;0.50;;
41057;SDS011;66768;48.884;2.258;2023-09-12T05:38:14;0.50;;;0.50;;
41057;SDS011;66768;48.884;2.258;2023-09-12T05:40:40;0.50;;;0.50;;
41057;SDS011;66768;48.884;2.258;2023-09-12T05:43:07;0.50;;;0.50;;
41057;SDS011;66768;48.884;2.258;2023-09-12T05:45:36;0.50;;;0.50;;
41057;SDS011;66768;48.884;2.258;2023-09-12T05:48:03;0.50;;;0.50;;
41057;SDS011;66768;48.884;2.258;2023-09-12T05:50:30;0.50;;;0.50;;
41057;SDS011;66768;48.884;2.258;2023-09-12T05:52:57;0.50;;;0.50;;
41057;SDS011;66768;48.884;2.258;2023-09-12T05:55:23;0.40;;;0.40;;
41057;SDS011;66768;48.884;2.258;2023-09-12T05:57:50;0.60;;;0.60;;
41057;SDS011;66768;48.884;2.258;2023-09-12T06:00:18;0.60;;;0.60;;
41057;SDS011;66768;48.884;2.258;2023-09-12T06:02:47;0.50;;;0.50;;
41057;SDS011;66768;48.884;2.258;2023-09-12T06:05:14;0.52;;;0.52;;
41057;SDS011;66768;48.884;2.258;2023-09-12T06:07:41;0.50;;;0.50;;
41057;SDS011;66768;48.884;2.258;2023-09-12T06:10:08;0.50;;;0.50;;
41057;SDS011;66768;48.884;2.258;2023-09-12T06:12:35;0.50;;;0.50;;
41057;SDS011;66768;48.884;2.258;2023-09-12T06:15:03;0.50;;;0.50;;
41057;SDS011;66768;48.884;2.258;2023-09-12T06:17:30;0.43;;;0.43;;
41057;SDS011;66768;48.884;2.258;2023-09-12T06:19:59;0.40;;;0.40;;
41057;SDS011;66768;48.884;2.258;2023-09-12T06:22:25;0.40;;;0.40;;
41057;SDS011;66768;48.884;2.258;2023-09-12T06:24:53;0.47;;;0.47;;
41057;SDS011;66768;48.884;2.258;2023-09-12T06:27:19;0.40;;;0.40;;
41057;SDS011;66768;48.884;2.258;2023-09-12T06:29:46;0.40;;;0.40;;
41057;SDS011;66768;48.884;2.258;2023-09-12T06:32:13;0.40;;;0.40;;
41057;SDS011;66768;48.884;2.258;2023-09-12T06:34:40;0.50;;;0.50;;
41057;SDS011;66768;48.884;2.258;2023-09-12T06:37:08;0.40;;;0.40;;
41057;SDS011;66768;48.884;2.258;2023-09-12T06:39:37;0.40;;;0.40;;
41057;SDS011;66768;48.884;2.258;2023-09-12T06:42:04;0.40;;;0.40;;
41057;SDS011;66768;48.884;2.258;2023-09-12T06:44:31;0.40;;;0.40;;
41057;SDS011;66768;48.884;2.258;2023-09-12T06:46:58;0.40;;;0.40;;
41057;SDS011;66768;48.884;2.258;2023-09-12T06:49:25;0.40;;;0.40;;
41057;SDS011;66768;48.884;2.258;2023-09-12T06:51:53;0.50;;;0.50;;
41057;SDS011;66768;48.884;2.258;2023-09-12T06:54:21;0.40;;;0.40;;
41057;SDS011;66768;48.884;2.258;2023-09-12T06:56:48;0.50;;;0.50;;
41057;SDS011;66768;48.884;2.258;2023-09-12T06:59:15;0.50;;;0.50;;
41057;SDS011;66768;48.884;2.258;2023-09-12T07:01:42;0.50;;;0.50;;
41057;SDS011;66768;48.884;2.258;2023-09-12T07:04:10;0.50;;;0.50;;
41057;SDS011;66768;48.884;2.258;2023-09-12T07:06:37;0.60;;;0.60;;
41057;SDS011;66768;48.884;2.258;2023-09-12T07:09:03;0.60;;;0.60;;
41057;SDS011;66768;48.884;2.258;2023-09-12T07:11:34;0.60;;;0.60;;
41057;SDS011;66768;48.884;2.258;2023-09-12T07:14:01;0.60;;;0.60;;
41057;SDS011;66768;48.884;2.258;2023-09-12T07:16:31;0.60;;;0.60;;
41057;SDS011;66768;48.884;2.258;2023-09-12T07:18:58;0.60;;;0.60;;
41057;SDS011;66768;48.884;2.258;2023-09-12T07:21:25;0.60;;;0.60;;
41057;SDS011;66768;48.884;2.258;2023-09-12T07:23:52;0.60;;;0.60;;
41057;SDS011;66768;48.884;2.258;2023-09-12T07:26:18;0.60;;;0.60;;
41057;SDS011;66768;48.884;2.258;2023-09-12T07:28:47;0.50;;;0.50;;
41057;SDS011;66768;48.884;2.258;2023-09-12T07:31:13;0.60;;;0.60;;
41057;SDS011;66768;48.884;2.258;2023-09-12T07:33:40;0.60;;;0.60;;
41057;SDS011;66768;48.884;2.258;2023-09-12T07:36:07;0.60;;;0.60;;
41057;SDS011;66768;48.884;2.258;2023-09-12T07:38:34;0.50;;;0.50;;
41057;SDS011;66768;48.884;2.258;2023-09-12T07:41:02;0.50;;;0.50;;
41057;SDS011;66768;48.884;2.258;2023-09-12T07:43:29;0.60;;;0.60;;
41057;SDS011;66768;48.884;2.258;2023-09-12T07:45:57;0.60;;;0.60;;
41057;SDS011;66768;48.884;2.258;2023-09-12T07:48:24;0.60;;;0.60;;
41057;SDS011;66768;48.884;2.258;2023-09-12T07:50:51;0.60;;;0.60;;
41057;SDS011;66768;48.884;2.258;2023-09-12T07:53:18;0.57;;;0.57;;
41057;SDS011;66768;48.884;2.258;2023-09-12T07:55:45;0.60;;;0.60;;
41057;SDS011;66768;48.884;2.258;2023-09-12T07:58:12;0.60;;;0.60;;
41057;SDS011;66768;48.884;2.258;2023-09-12T08:00:39;0.60;;;0.60;;
41057;SDS011;66768;48.884;2.258;2023-09-12T08:03:08;0.50;;;0.50;;
41057;SDS011;66768;48.884;2.258;2023-09-12T08:05:35;0.70;;;0.70;;
41057;SDS011;66768;48.884;2.258;2023-09-12T08:08:03;0.55;;;0.55;;
41057;SDS011;66768;48.884;2.258;2023-09-12T08:10:30;0.60;;;0.60;;
41057;SDS011;66768;48.884;2.258;2023-09-12T08:12:57;0.50;;;0.50;;
41057;SDS011;66768;48.884;2.258;2023-09-12T08:15:24;0.60;;;0.60;;
41057;SDS011;66768;48.884;2.258;2023-09-12T08:17:51;0.50;;;0.50;;
41057;SDS011;66768;48.884;2.258;2023-09-12T08:20:20;0.50;;;0.50;;
41057;SDS011;66768;48.884;2.258;2023-09-12T08:22:47;0.40;;;0.40;;
41057;SDS011;66768;48.884;2.258;2023-09-12T08:25:14;0.50;;;0.50;;
41057;SDS011;66768;48.884;2.258;2023-09-12T08:27:41;0.50;;;0.50;;
41057;SDS011;66768;48.884;2.258;2023-09-12T08:30:09;0.50;;;0.50;;
41057;SDS011;66768;48.884;2.258;2023-09-12T08:32:37;0.55;;;0.55;;
41057;SDS011;66768;48.884;2.258;2023-09-12T08:35:08;0.50;;;0.50;;
41057;SDS011;66768;48.884;2.258;2023-09-12T08:37:37;0.45;;;0.45;;
41057;SDS011;66768;48.884;2.258;2023-09-12T08:40:05;0.50;;;0.50;;
41057;SDS011;66768;48.884;2.258;2023-09-12T08:42:35;0.50;;;0.50;;
41057;SDS011;66768;48.884;2.258;2023-09-12T08:45:06;0.50;;;0.50;;
41057;SDS011;66768;48.884;2.258;2023-09-12T08:47:37;0.60;;;0.60;;
41057;SDS011;66768;48.884;2.258;2023-09-12T08:50:07;0.50;;;0.50;;
41057;SDS011;66768;48.884;2.258;2023-09-12T08:52:38;0.60;;;0.60;;
41057;SDS011;66768;48.884;2.258;2023-09-12T08:55:06;0.70;;;0.70;;
41057;SDS011;66768;48.884;2.258;2023-09-12T08:57:33;0.55;;;0.55;;
41057;SDS011;66768;48.884;2.258;2023-09-12T09:00:03;0.60;;;0.60;;
41057;SDS011;66768;48.884;2.258;2023-09-12T09:02:33;0.60;;;0.60;;
41057;SDS011;66768;48.884;2.258;2023-09-12T09:05:01;0.60;;;0.60;;
41057;SDS011;66768;48.884;2.258;2023-09-12T09:07:30;0.60;;;0.60;;
41057;SDS011;66768;48.884;2.258;2023-09-12T09:09:59;0.50;;;0.50;;
41057;SDS011;66768;48.884;2.258;2023-09-12T09:12:29;2.58;;;2.47;;
41057;SDS011;66768;48.884;2.258;2023-09-12T09:14:56;0.60;;;0.60;;
41057;SDS011;66768;48.884;2.258;2023-09-12T09:17:23;0.60;;;0.60;;
41057;SDS011;66768;48.884;2.258;2023-09-12T09:19:50;0.60;;;0.60;;
41057;SDS011;66768;48.884;2.258;2023-09-12T09:22:16;0.50;;;0.50;;
41057;SDS011;66768;48.884;2.258;2023-09-12T09:24:43;0.50;;;0.50;;
41057;SDS011;66768;48.884;2.258;2023-09-12T09:27:12;0.40;;;0.40;;
41057;SDS011;66768;48.884;2.258;2023-09-12T09:29:58;0.40;;;0.40;;
41057;SDS011;66768;48.884;2.258;2023-09-12T09:32:25;0.40;;;0.40;;
41057;SDS011;66768;48.884;2.258;2023-09-12T09:34:52;0.30;;;0.30;;
41057;SDS011;66768;48.884;2.258;2023-09-12T09:37:19;0.40;;;0.40;;
41057;SDS011;66768;48.884;2.258;2023-09-12T09:39:48;0.40;;;0.40;;
41057;SDS011;66768;48.884;2.258;2023-09-12T09:42:18;0.40;;;0.40;;
41057;SDS011;66768;48.884;2.258;2023-09-12T09:44:45;0.38;;;0.38;;
41057;SDS011;66768;48.884;2.258;2023-09-12T09:47:13;0.40;;;0.40;;
41057;SDS011;66768;48.884;2.258;2023-09-12T09:49:40;0.50;;;0.50;;
41057;SDS011;66768;48.884;2.258;2023-09-12T09:52:12;0.50;;;0.50;;
41057;SDS011;66768;48.884;2.258;2023-09-12T09:54:42;0.60;;;0.60;;
41057;SDS011;66768;48.884;2.258;2023-09-12T09:57:10;0.63;;;0.63;;
41057;SDS011;66768;48.884;2.258;2023-09-12T09:59:38;0.75;;;0.75;;
41057;SDS011;66768;48.884;2.258;2023-09-12T10:02:05;0.70;;;0.70;;
41057;SDS011;66768;48.884;2.258;2023-09-12T10:04:36;0.80;;;0.80;;
41057;SDS011;66768;48.884;2.258;2023-09-12T10:07:04;0.63;;;0.63;;
41057;SDS011;66768;48.884;2.258;2023-09-12T10:09:31;0.70;;;0.70;;
41057;SDS011;66768;48.884;2.258;2023-09-12T10:11:59;0.70;;;0.70;;
41057;SDS011;66768;48.884;2.258;2023-09-12T10:14:26;0.77;;;0.77;;
41057;SDS011;66768;48.884;2.258;2023-09-12T10:16:57;0.70;;;0.70;;
41057;SDS011;66768;48.884;2.258;2023-09-12T10:19:29;0.50;;;0.50;;
41057;SDS011;66768;48.884;2.258;2023-09-12T10:22:03;0.40;;;0.40;;
41057;SDS011;66768;48.884;2.258;2023-09-12T10:24:35;0.50;;;0.50;;
41057;SDS011;66768;48.884;2.258;2023-09-12T10:27:02;0.63;;;0.63;;
41057;SDS011;66768;48.884;2.258;2023-09-12T10:29:31;0.60;;;0.60;;
41057;SDS011;66768;48.884;2.258;2023-09-12T10:31:59;0.50;;;0.50;;
41057;SDS011;66768;48.884;2.258;2023-09-12T10:34:26;0.60;;;0.60;;
41057;SDS011;66768;48.884;2.258;2023-09-12T10:36:55;0.60;;;0.60;;
41057;SDS011;66768;48.884;2.258;2023-09-12T10:39:24;0.68;;;0.68;;
41057;SDS011;66768;48.884;2.258;2023-09-12T10:41:54;0.70;;;0.70;;
41057;SDS011;66768;48.884;2.258;2023-09-12T10:44:23;0.70;;;0.70;;
41057;SDS011;66768;48.884;2.258;2023-09-12T10:46:50;0.60;;;0.60;;
41057;SDS011;66768;48.884;2.258;2023-09-12T10:49:20;0.70;;;0.70;;
41057;SDS011;66768;48.884;2.258;2023-09-12T10:51:48;0.60;;;0.60;;
41057;SDS011;66768;48.884;2.258;2023-09-12T10:54:16;0.50;;;0.50;;
41057;SDS011;66768;48.884;2.258;2023-09-12T10:57:01;0.55;;;0.55;;
41057;SDS011;66768;48.884;2.258;2023-09-12T10:59:29;0.60;;;0.60;;
41057;SDS011;66768;48.884;2.258;2023-09-12T11:04:56;0.70;;;0.70;;
41057;SDS011;66768;48.884;2.258;2023-09-12T11:07:30;0.80;;;0.80;;
41057;SDS011;66768;48.884;2.258;2023-09-12T11:10:20;0.77;;;0.77;;
41057;SDS011;66768;48.884;2.258;2023-09-12T11:12:48;0.80;;;0.80;;
41057;SDS011;66768;48.884;2.258;2023-09-12T11:15:16;0.80;;;0.80;;
41057;SDS011;66768;48.884;2.258;2023-09-12T11:17:44;0.80;;;0.80;;
41057;SDS011;66768;48.884;2.258;2023-09-12T11:20:12;0.70;;;0.70;;
41057;SDS011;66768;48.884;2.258;2023-09-12T11:22:40;0.70;;;0.70;;
41057;SDS011;66768;48.884;2.258;2023-09-12T11:25:18;0.70;;;0.70;;
41057;SDS011;66768;48.884;2.258;2023-09-12T11:28:01;0.70;;;0.70;;
41057;SDS011;66768;48.884;2.258;2023-09-12T11:30:30;0.85;;;0.85;;
41057;SDS011;66768;48.884;2.258;2023-09-12T11:32:57;0.85;;;0.85;;
41057;SDS011;66768;48.884;2.258;2023-09-12T11:35:26;0.90;;;0.90;;
41057;SDS011;66768;48.884;2.258;2023-09-12T11:37:55;0.70;;;0.70;;
41057;SDS011;66768;48.884;2.258;2023-09-12T11:40:23;0.80;;;0.80;;
41057;SDS011;66768;48.884;2.258;2023-09-12T11:42:51;0.98;;;0.98;;
41057;SDS011;66768;48.884;2.258;2023-09-12T11:45:19;0.90;;;0.90;;
41057;SDS011;66768;48.884;2.258;2023-09-12T11:47:47;0.80;;;0.80;;
41057;SDS011;66768;48.884;2.258;2023-09-12T11:50:31;0.70;;;0.70;;
41057;SDS011;66768;48.884;2.258;2023-09-12T11:53:01;0.70;;;0.70;;
41057;SDS011;66768;48.884;2.258;2023-09-12T11:55:30;0.80;;;0.80;;
41057;SDS011;66768;48.884;2.258;2023-09-12T11:57:58;0.70;;;0.70;;
41057;SDS011;66768;48.884;2.258;2023-09-12T12:00:25;0.60;;;0.60;;
41057;SDS011;66768;48.884;2.258;2023-09-12T12:02:52;0.60;;;0.60;;
41057;SDS011;66768;48.884;2.258;2023-09-12T12:05:20;0.70;;;0.70;;
41057;SDS011;66768;48.884;2.258;2023-09-12T12:07:49;0.55;;;0.55;;
41057;SDS011;66768;48.884;2.258;2023-09-12T12:10:16;0.60;;;0.60;;
41057;SDS011;66768;48.884;2.258;2023-09-12T12:12:43;0.60;;;0.60;;
41057;SDS011;66768;48.884;2.258;2023-09-12T12:15:11;0.60;;;0.60;;
41057;SDS011;66768;48.884;2.258;2023-09-12T12:17:40;0.60;;;0.60;;
41057;SDS011;66768;48.884;2.258;2023-09-12T12:20:08;0.60;;;0.60;;
41057;SDS011;66768;48.884;2.258;2023-09-12T12:22:36;0.60;;;0.60;;
41057;SDS011;66768;48.884;2.258;2023-09-12T12:25:08;0.50;;;0.50;;
41057;SDS011;66768;48.884;2.258;2023-09-12T12:27:36;0.52;;;0.52;;
41057;SDS011;66768;48.884;2.258;2023-09-12T12:30:05;0.60;;;0.60;;
41057;SDS011;66768;48.884;2.258;2023-09-12T12:32:33;0.50;;;0.50;;
41057;SDS011;66768;48.884;2.258;2023-09-12T12:35:00;0.60;;;0.60;;
41057;SDS011;66768;48.884;2.258;2023-09-12T12:37:28;0.70;;;0.70;;
41057;SDS011;66768;48.884;2.258;2023-09-12T12:39:59;0.50;;;0.50;;
41057;SDS011;66768;48.884;2.258;2023-09-12T12:42:34;0.60;;;0.60;;
41057;SDS011;66768;48.884;2.258;2023-09-12T12:45:02;0.60;;;0.60;;
41057;SDS011;66768;48.884;2.258;2023-09-12T12:47:36;0.50;;;0.50;;
41057;SDS011;66768;48.884;2.258;2023-09-12T12:50:06;0.50;;;0.50;;
41057;SDS011;66768;48.884;2.258;2023-09-12T12:52:34;0.60;;;0.60;;
41057;SDS011;66768;48.884;2.258;2023-09-12T12:55:06;0.50;;;0.50;;
41057;SDS011;66768;48.884;2.258;2023-09-12T12:57:37;0.50;;;0.50;;
41057;SDS011;66768;48.884;2.258;2023-09-12T13:00:06;0.60;;;0.60;;
41057;SDS011;66768;48.884;2.258;2023-09-12T13:02:36;0.50;;;0.50;;
41057;SDS011;66768;48.884;2.258;2023-09-12T13:05:03;0.50;;;0.50;;
41057;SDS011;66768;48.884;2.258;2023-09-12T13:07:33;0.60;;;0.60;;
41057;SDS011;66768;48.884;2.258;2023-09-12T13:10:00;0.60;;;0.60;;
41057;SDS011;66768;48.884;2.258;2023-09-12T13:12:28;0.50;;;0.50;;
41057;SDS011;66768;48.884;2.258;2023-09-12T13:14:56;0.60;;;0.60;;
41057;SDS011;66768;48.884;2.258;2023-09-12T13:17:23;0.60;;;0.60;;
41057;SDS011;66768;48.884;2.258;2023-09-12T13:19:50;0.63;;;0.63;;
41057;SDS011;66768;48.884;2.258;2023-09-12T13:22:16;0.70;;;0.70;;
41057;SDS011;66768;48.884;2.258;2023-09-12T13:24:43;0.60;;;0.60;;
41057;SDS011;66768;48.884;2.258;2023-09-12T13:27:11;0.70;;;0.70;;
41057;SDS011;66768;48.884;2.258;2023-09-12T13:29:38;0.60;;;0.60;;
41057;SDS011;66768;48.884;2.258;2023-09-12T13:32:06;0.50;;;0.50;;
41057;SDS011;66768;48.884;2.258;2023-09-12T13:34:35;0.60;;;0.60;;
41057;SDS011;66768;48.884;2.258;2023-09-12T13:37:02;0.60;;;0.60;;
41057;SDS011;66768;48.884;2.258;2023-09-12T13:39:31;0.70;;;0.70;;
41057;SDS011;66768;48.884;2.258;2023-09-12T13:41:58;0.85;;;0.85;;
41057;SDS011;66768;48.884;2.258;2023-09-12T13:44:28;1.00;;;1.00;;
41057;SDS011;66768;48.884;2.258;2023-09-12T13:46:55;1.00;;;1.00;;
41057;SDS011;66768;48.884;2.258;2023-09-12T13:49:23;0.82;;;0.82;;
41057;SDS011;66768;48.884;2.258;2023-09-12T13:51:50;0.70;;;0.70;;
41057;SDS011;66768;48.884;2.258;2023-09-12T13:54:16;0.60;;;0.60;;
41057;SDS011;66768;48.884;2.258;2023-09-12T13:56:43;0.68;;;0.68;;
41057;SDS011;66768;48.884;2.258;2023-09-12T13:59:10;0.63;;;0.63;;
41057;SDS011;66768;48.884;2.258;2023-09-12T14:01:37;0.70;;;0.70;;
41057;SDS011;66768;48.884;2.258;2023-09-12T14:04:04;0.60;;;0.60;;
41057;SDS011;66768;48.884;2.258;2023-09-12T14:06:32;0.60;;;0.60;;
41057;SDS011;66768;48.884;2.258;2023-09-12T14:09:01;0.63;;;0.63;;
41057;SDS011;66768;48.884;2.258;2023-09-12T14:11:27;0.60;;;0.60;;
41057;SDS011;66768;48.884;2.258;2023-09-12T14:13:54;0.60;;;0.60;;
41057;SDS011;66768;48.884;2.258;2023-09-12T14:16:21;0.63;;;0.63;;
41057;SDS011;66768;48.884;2.258;2023-09-12T14:18:48;0.55;;;0.55;;
41057;SDS011;66768;48.884;2.258;2023-09-12T14:21:15;0.50;;;0.50;;
41057;SDS011;66768;48.884;2.258;2023-09-12T14:23:43;0.60;;;0.60;;
41057;SDS011;66768;48.884;2.258;2023-09-12T14:26:10;0.50;;;0.50;;
41057;SDS011;66768;48.884;2.258;2023-09-12T14:28:37;0.60;;;0.60;;
41057;SDS011;66768;48.884;2.258;2023-09-12T14:31:04;0.50;;;0.50;;
41057;SDS011;66768;48.884;2.258;2023-09-12T14:33:38;0.50;;;0.50;;
41057;SDS011;66768;48.884;2.258;2023-09-12T14:36:05;0.50;;;0.50;;
41057;SDS011;66768;48.884;2.258;2023-09-12T14:38:32;0.50;;;0.50;;
41057;SDS011;66768;48.884;2.258;2023-09-12T14:41:00;0.50;;;0.50;;
41057;SDS011;66768;48.884;2.258;2023-09-12T14:43:27;0.50;;;0.50;;
41057;SDS011;66768;48.884;2.258;2023-09-12T14:45:54;0.50;;;0.50;;
41057;SDS011;66768;48.884;2.258;2023-09-12T14:48:21;0.50;;;0.50;;
41057;SDS011;66768;48.884;2.258;2023-09-12T14:50:48;0.50;;;0.50;;
41057;SDS011;66768;48.884;2.258;2023-09-12T14:53:15;0.70;;;0.70;;
41057;SDS011;66768;48.884;2.258;2023-09-12T14:55:42;0.50;;;0.50;;